createdAt,value
2023-08-09T00:00:56.745Z,32.80
2023-08-09T00:01:56.785Z,32.84
2023-08-09T00:02:56.855Z,32.80
2023-08-09T00:03:56.920Z,32.81
2023-08-09T00:04:56.925Z,32.85
2023-08-09T00:05:56.968Z,32.80
2023-08-09T00:06:57.021Z,32.81
2023-08-09T00:07:57.061Z,32.87
2023-08-09T00:08:57.103Z,32.83
2023-08-09T00:09:57.159Z,32.81
2023-08-09T00:10:57.204Z,32.86
2023-08-09T00:11:57.251Z,32.89
2023-08-09T00:12:57.299Z,32.87
2023-08-09T00:13:57.331Z,32.86
2023-08-09T00:14:57.385Z,32.86
2023-08-09T00:15:57.464Z,32.84
2023-08-09T00:16:57.461Z,32.86
2023-08-09T00:17:57.563Z,32.87
2023-08-09T00:18:57.569Z,32.87
2023-08-09T00:19:57.672Z,32.87
2023-08-09T00:20:58.177Z,32.86
2023-08-09T00:21:57.699Z,32.86
2023-08-09T00:22:57.735Z,32.89
2023-08-09T00:23:57.803Z,32.89
2023-08-09T00:24:57.831Z,32.86
2023-08-09T00:25:57.885Z,32.89
2023-08-09T00:26:57.930Z,32.87
2023-08-09T00:27:58.016Z,32.86
2023-08-09T00:28:58.020Z,32.83
2023-08-09T00:29:58.068Z,32.91
2023-08-09T00:30:58.128Z,32.88
2023-08-09T00:31:58.147Z,32.87
2023-08-09T00:32:58.242Z,32.85
2023-08-09T00:33:58.237Z,32.84
2023-08-09T00:34:58.294Z,32.90
2023-08-09T00:35:58.362Z,32.91
2023-08-09T00:36:58.386Z,32.90
2023-08-09T00:37:58.421Z,32.93
2023-08-09T00:38:58.472Z,32.91
2023-08-09T00:39:58.523Z,32.89
2023-08-09T00:40:58.569Z,32.90
2023-08-09T00:41:58.608Z,32.87
2023-08-09T00:42:58.649Z,32.86
2023-08-09T00:43:58.725Z,32.91
2023-08-09T00:44:58.758Z,32.90
2023-08-09T00:45:58.841Z,32.91
2023-08-09T00:46:58.913Z,32.91
2023-08-09T00:47:58.906Z,32.91
2023-08-09T00:48:58.919Z,32.93
2023-08-09T00:49:58.970Z,32.94
2023-08-09T00:50:59.007Z,32.93
2023-08-09T00:51:59.147Z,32.95
2023-08-09T00:52:59.102Z,32.97
2023-08-09T00:53:59.158Z,32.94
2023-08-09T00:54:59.213Z,32.95
2023-08-09T00:55:59.246Z,32.96
2023-08-09T00:56:59.586Z,32.91
2023-08-09T00:57:59.341Z,32.92
2023-08-09T00:58:59.377Z,32.91
2023-08-09T00:59:59.421Z,32.93
2023-08-09T01:01:02.220Z,32.95
2023-08-09T01:01:59.479Z,32.94
2023-08-09T01:02:59.585Z,32.91
2023-08-09T01:03:59.454Z,32.91
2023-08-09T01:04:59.439Z,32.94
2023-08-09T01:05:59.433Z,32.97
2023-08-09T01:06:59.785Z,32.97
2023-08-09T01:07:59.429Z,32.97
2023-08-09T01:08:59.425Z,32.99
2023-08-09T01:09:59.409Z,32.95
2023-08-09T01:10:59.400Z,32.97
2023-08-09T01:12:08.709Z,32.99
2023-08-09T01:12:59.398Z,33.03
2023-08-09T01:13:59.387Z,33.01
2023-08-09T01:14:59.373Z,33.01
2023-08-09T01:15:59.412Z,32.95
2023-08-09T01:17:02.368Z,32.95
2023-08-09T01:17:59.376Z,33.00
2023-08-09T01:18:59.361Z,32.97
2023-08-09T01:19:59.359Z,32.98
2023-08-09T01:20:59.349Z,33.04
2023-08-09T01:21:59.737Z,33.00
2023-08-09T01:22:59.310Z,33.00
2023-08-09T01:23:59.336Z,33.00
2023-08-09T01:24:59.294Z,32.98
2023-08-09T01:25:59.295Z,33.03
2023-08-09T01:26:59.572Z,33.03
2023-08-09T01:27:59.293Z,33.00
2023-08-09T01:28:59.277Z,33.01
2023-08-09T01:29:59.263Z,32.98
2023-08-09T01:30:59.285Z,33.03
2023-08-09T01:31:59.280Z,33.01
2023-08-09T01:32:59.275Z,33.04
2023-08-09T01:33:59.261Z,33.04
2023-08-09T01:34:59.247Z,33.06
2023-08-09T01:35:59.239Z,33.01
2023-08-09T01:36:59.482Z,33.01
2023-08-09T01:37:59.216Z,33.04
2023-08-09T01:38:59.208Z,33.02
2023-08-09T01:39:59.216Z,33.06
2023-08-09T01:40:59.194Z,33.02
2023-08-09T01:41:59.227Z,33.02
2023-08-09T01:42:59.185Z,33.02
2023-08-09T01:43:59.179Z,33.07
2023-08-09T01:44:59.175Z,33.06
2023-08-09T01:45:59.148Z,33.02
2023-08-09T01:46:59.413Z,33.01
2023-08-09T01:47:59.157Z,33.04
2023-08-09T01:48:59.137Z,33.04
2023-08-09T01:49:59.141Z,33.07
2023-08-09T01:50:59.130Z,33.14
2023-08-09T01:51:59.138Z,33.02
2023-08-09T01:52:59.118Z,33.08
2023-08-09T01:53:59.136Z,33.04
2023-08-09T01:54:59.114Z,33.06
2023-08-09T01:55:59.104Z,33.04
2023-08-09T01:56:59.335Z,33.07
2023-08-09T01:57:59.074Z,33.06
2023-08-09T01:58:59.089Z,33.02
2023-08-09T01:59:59.051Z,33.06
2023-08-09T02:00:59.155Z,33.07
2023-08-09T02:01:59.197Z,33.07
2023-08-09T02:02:59.244Z,33.02
2023-08-09T02:03:59.238Z,33.04
2023-08-09T02:04:59.297Z,33.07
2023-08-09T02:05:59.327Z,33.05
2023-08-09T02:06:59.585Z,33.04
2023-08-09T02:07:59.426Z,33.10
2023-08-09T02:08:59.464Z,33.07
2023-08-09T02:09:59.500Z,33.02
2023-08-09T02:10:59.540Z,33.08
2023-08-09T02:11:59.589Z,33.12
2023-08-09T02:12:59.652Z,33.07
2023-08-09T02:13:59.685Z,33.07
2023-08-09T02:14:59.721Z,33.08
2023-08-09T02:15:59.771Z,33.08
2023-08-09T02:17:00.309Z,33.08
2023-08-09T02:17:59.924Z,33.10
2023-08-09T02:18:59.896Z,33.05
2023-08-09T02:19:59.967Z,33.08
2023-08-09T02:20:59.990Z,33.10
2023-08-09T02:22:00.045Z,33.07
2023-08-09T02:23:00.128Z,33.07
2023-08-09T02:24:00.137Z,33.10
2023-08-09T02:25:00.184Z,33.08
2023-08-09T02:26:00.237Z,33.08
2023-08-09T02:27:00.473Z,33.10
2023-08-09T02:28:00.326Z,33.10
2023-08-09T02:29:00.363Z,33.11
2023-08-09T02:30:00.394Z,33.10
2023-08-09T02:31:00.450Z,33.10
2023-08-09T02:32:00.497Z,33.14
2023-08-09T02:33:00.579Z,33.08
2023-08-09T02:34:00.585Z,33.11
2023-08-09T02:35:00.681Z,33.11
2023-08-09T02:36:00.685Z,33.06
2023-08-09T02:37:00.974Z,33.08
2023-08-09T02:38:00.775Z,33.11
2023-08-09T02:39:00.813Z,33.12
2023-08-09T02:40:00.852Z,33.12
2023-08-09T02:41:00.892Z,33.12
2023-08-09T02:42:00.953Z,33.07
2023-08-09T02:43:00.978Z,33.10
2023-08-09T02:44:01.027Z,33.11
2023-08-09T02:45:01.057Z,33.14
2023-08-09T02:46:01.126Z,33.11
2023-08-09T02:47:01.319Z,33.14
2023-08-09T02:48:01.220Z,33.18
2023-08-09T02:49:01.232Z,33.14
2023-08-09T02:50:01.282Z,33.17
2023-08-09T02:51:01.337Z,33.17
2023-08-09T02:52:01.382Z,33.18
2023-08-09T02:53:01.453Z,33.15
2023-08-09T02:54:01.463Z,33.09
2023-08-09T02:55:01.514Z,33.08
2023-08-09T02:56:01.560Z,33.15
2023-08-09T02:57:01.883Z,33.14
2023-08-09T02:58:01.647Z,33.15
2023-08-09T02:59:01.704Z,33.12
2023-08-09T03:00:01.732Z,33.18
2023-08-09T03:01:01.775Z,33.12
2023-08-09T03:02:01.840Z,33.15
2023-08-09T03:03:01.927Z,33.12
2023-08-09T03:04:01.941Z,33.15
2023-08-09T03:05:01.935Z,33.12
2023-08-09T03:06:01.993Z,33.15
2023-08-09T03:07:02.297Z,33.16
2023-08-09T03:08:02.086Z,33.15
2023-08-09T03:09:02.133Z,33.15
2023-08-09T03:10:02.181Z,33.15
2023-08-09T03:11:02.227Z,33.16
2023-08-09T03:12:02.304Z,33.21
2023-08-09T03:13:02.313Z,33.15
2023-08-09T03:14:02.365Z,33.15
2023-08-09T03:15:02.429Z,33.18
2023-08-09T03:16:02.455Z,33.15
2023-08-09T03:17:02.640Z,33.11
2023-08-09T03:18:02.553Z,33.19
2023-08-09T03:19:02.589Z,33.19
2023-08-09T03:20:02.676Z,33.16
2023-08-09T03:21:02.716Z,33.21
2023-08-09T03:22:02.724Z,33.16
2023-08-09T03:23:02.769Z,33.19
2023-08-09T03:24:02.822Z,33.19
2023-08-09T03:25:02.866Z,33.18
2023-08-09T03:26:02.941Z,33.19
2023-08-09T03:27:03.376Z,33.24
2023-08-09T03:28:03.003Z,33.21
2023-08-09T03:29:03.053Z,33.19
2023-08-09T03:30:03.081Z,33.19
2023-08-09T03:31:03.120Z,33.16
2023-08-09T03:32:03.264Z,33.19
2023-08-09T03:33:03.260Z,33.18
2023-08-09T03:34:03.275Z,33.16
2023-08-09T03:35:03.296Z,33.18
2023-08-09T03:36:03.381Z,33.24
2023-08-09T03:37:03.487Z,33.19
2023-08-09T03:38:03.444Z,33.23
2023-08-09T03:39:03.513Z,33.21
2023-08-09T03:40:03.547Z,33.18
2023-08-09T03:41:03.571Z,33.19
2023-08-09T03:42:03.630Z,33.19
2023-08-09T03:43:03.661Z,33.18
2023-08-09T03:44:03.709Z,33.18
2023-08-09T03:45:03.751Z,33.22
2023-08-09T03:46:03.854Z,33.22
2023-08-09T03:47:04.212Z,33.19
2023-08-09T03:48:03.892Z,33.19
2023-08-09T03:49:03.925Z,33.21
2023-08-09T03:50:03.974Z,33.19
2023-08-09T03:51:04.024Z,33.21
2023-08-09T03:52:04.057Z,33.21
2023-08-09T03:53:04.104Z,33.18
2023-08-09T03:54:04.178Z,33.22
2023-08-09T03:55:04.193Z,33.21
2023-08-09T03:56:04.232Z,33.21
2023-08-09T03:57:04.599Z,33.23
2023-08-09T03:58:04.387Z,33.28
2023-08-09T03:59:04.373Z,33.25
2023-08-09T04:00:04.413Z,33.27
2023-08-09T04:01:04.519Z,33.21
2023-08-09T04:02:04.502Z,33.23
2023-08-09T04:03:04.563Z,33.21
2023-08-09T04:04:06.556Z,33.27
2023-08-09T04:05:04.616Z,33.25
2023-08-09T04:06:04.592Z,33.23
2023-08-09T04:07:04.891Z,33.25
2023-08-09T04:08:04.572Z,33.28
2023-08-09T04:09:04.566Z,33.23
2023-08-09T04:10:04.582Z,33.24
2023-08-09T04:11:04.558Z,33.24
2023-08-09T04:12:04.547Z,33.22
2023-08-09T04:13:04.566Z,33.22
2023-08-09T04:14:04.547Z,33.31
2023-08-09T04:15:04.539Z,33.29
2023-08-09T04:16:04.574Z,33.27
2023-08-09T04:17:04.519Z,33.23
2023-08-09T04:18:04.538Z,33.25
2023-08-09T04:19:04.529Z,33.23
2023-08-09T04:20:04.505Z,33.26
2023-08-09T04:21:04.494Z,33.25
2023-08-09T04:22:04.517Z,33.29
2023-08-09T04:23:04.471Z,33.23
2023-08-09T04:24:04.465Z,33.29
2023-08-09T04:25:04.463Z,33.26
2023-08-09T04:26:04.457Z,33.31
2023-08-09T04:27:04.677Z,33.23
2023-08-09T04:28:04.438Z,33.26
2023-08-09T04:29:04.465Z,33.29
2023-08-09T04:30:04.435Z,33.25
2023-08-09T04:31:04.525Z,33.25
2023-08-09T04:32:04.449Z,33.26
2023-08-09T04:33:04.510Z,33.32
2023-08-09T04:34:04.523Z,33.34
2023-08-09T04:35:04.630Z,33.25
2023-08-09T04:36:04.624Z,33.29
2023-08-09T04:37:05.280Z,33.26
2023-08-09T04:38:04.735Z,33.28
2023-08-09T04:39:04.783Z,33.32
2023-08-09T04:40:04.822Z,33.29
2023-08-09T04:41:04.884Z,33.29
2023-08-09T04:42:04.902Z,33.29
2023-08-09T04:43:04.991Z,33.32
2023-08-09T04:44:05.026Z,33.29
2023-08-09T04:45:05.049Z,33.29
2023-08-09T04:46:05.158Z,33.27
2023-08-09T04:47:05.161Z,33.31
2023-08-09T04:48:05.228Z,33.29
2023-08-09T04:49:05.226Z,33.29
2023-08-09T04:50:05.293Z,33.32
2023-08-09T04:51:05.370Z,33.32
2023-08-09T04:52:05.572Z,33.29
2023-08-09T04:53:05.448Z,33.30
2023-08-09T04:54:05.463Z,33.32
2023-08-09T04:55:05.561Z,33.23
2023-08-09T04:56:05.547Z,33.29
2023-08-09T04:57:05.835Z,33.28
2023-08-09T04:58:05.723Z,33.29
2023-08-09T04:59:05.706Z,33.29
2023-08-09T05:00:05.745Z,33.28
2023-08-09T05:01:05.838Z,33.31
2023-08-09T05:02:05.843Z,33.28
2023-08-09T05:03:05.953Z,33.34
2023-08-09T05:04:05.925Z,33.32
2023-08-09T05:05:05.977Z,33.32
2023-08-09T05:06:06.009Z,33.28
2023-08-09T05:07:06.159Z,33.23
2023-08-09T05:08:06.097Z,33.31
2023-08-09T05:09:06.143Z,33.26
2023-08-09T05:10:06.199Z,33.26
2023-08-09T05:11:06.245Z,33.28
2023-08-09T05:12:06.277Z,33.26
2023-08-09T05:13:06.345Z,33.26
2023-08-09T05:14:06.369Z,33.29
2023-08-09T05:15:06.423Z,33.29
2023-08-09T05:16:06.469Z,33.26
2023-08-09T05:17:06.567Z,33.22
2023-08-09T05:18:06.585Z,33.28
2023-08-09T05:19:06.606Z,33.29
2023-08-09T05:20:06.663Z,33.28
2023-08-09T05:21:06.695Z,33.31
2023-08-09T05:22:06.748Z,33.29
2023-08-09T05:23:06.820Z,33.31
2023-08-09T05:24:06.848Z,33.30
2023-08-09T05:25:06.956Z,33.26
2023-08-09T05:26:06.946Z,33.29
2023-08-09T05:27:07.009Z,33.28
2023-08-09T05:28:07.040Z,33.25
2023-08-09T05:29:07.081Z,33.29
2023-08-09T05:30:07.144Z,33.25
2023-08-09T05:31:07.230Z,33.26
2023-08-09T05:32:07.216Z,33.29
2023-08-09T05:33:07.303Z,33.28
2023-08-09T05:34:07.308Z,33.24
2023-08-09T05:35:07.347Z,33.26
2023-08-09T05:36:07.403Z,33.26
2023-08-09T05:37:07.551Z,33.31
2023-08-09T05:38:07.514Z,33.28
2023-08-09T05:39:07.553Z,33.32
2023-08-09T05:40:07.596Z,33.29
2023-08-09T05:41:07.659Z,33.29
2023-08-09T05:42:07.695Z,33.29
2023-08-09T05:43:07.752Z,33.25
2023-08-09T05:44:07.814Z,33.29
2023-08-09T05:45:07.836Z,33.25
2023-08-09T05:46:07.912Z,33.28
2023-08-09T05:47:08.707Z,33.26
2023-08-09T05:48:07.966Z,33.22
2023-08-09T05:49:08.005Z,33.29
2023-08-09T05:50:08.048Z,33.28
2023-08-09T05:51:08.100Z,33.32
2023-08-09T05:52:08.148Z,33.25
2023-08-09T05:53:08.185Z,33.27
2023-08-09T05:54:08.236Z,33.28
2023-08-09T05:55:08.270Z,33.23
2023-08-09T05:56:08.317Z,33.28
2023-08-09T05:57:08.383Z,33.32
2023-08-09T05:58:08.402Z,33.28
2023-08-09T05:59:08.483Z,33.26
2023-08-09T06:00:08.500Z,33.29
2023-08-09T06:01:08.628Z,33.25
2023-08-09T06:02:08.641Z,33.32
2023-08-09T06:03:08.681Z,33.31
2023-08-09T06:04:08.772Z,33.23
2023-08-09T06:05:08.717Z,33.29
2023-08-09T06:06:08.794Z,33.28
2023-08-09T06:07:08.810Z,33.26
2023-08-09T06:08:08.878Z,33.32
2023-08-09T06:09:08.911Z,33.29
2023-08-09T06:10:08.959Z,33.29
2023-08-09T06:11:09.021Z,33.32
2023-08-09T06:12:09.056Z,33.31
2023-08-09T06:13:09.117Z,33.34
2023-08-09T06:14:09.168Z,33.29
2023-08-09T06:15:09.196Z,33.28
2023-08-09T06:16:09.275Z,33.31
2023-08-09T06:17:09.282Z,33.27
2023-08-09T06:18:09.394Z,33.29
2023-08-09T06:19:09.479Z,33.25
2023-08-09T06:20:09.431Z,33.25
2023-08-09T06:21:09.489Z,33.22
2023-08-09T06:22:09.513Z,33.25
2023-08-09T06:23:09.568Z,33.27
2023-08-09T06:24:09.623Z,33.28
2023-08-09T06:25:09.656Z,33.22
2023-08-09T06:26:09.752Z,33.24
2023-08-09T06:27:09.756Z,33.22
2023-08-09T06:28:09.799Z,33.18
2023-08-09T06:29:09.852Z,33.15
2023-08-09T06:30:09.945Z,33.21
2023-08-09T06:31:09.973Z,33.20
2023-08-09T06:32:10.000Z,33.20
2023-08-09T06:33:10.025Z,33.18
2023-08-09T06:34:10.105Z,33.20
2023-08-09T06:35:10.125Z,33.17
2023-08-09T06:36:10.165Z,33.16
2023-08-09T06:37:10.219Z,33.17
2023-08-09T06:38:15.719Z,33.16
2023-08-09T06:39:11.252Z,33.11
2023-08-09T06:40:10.261Z,33.11
2023-08-09T06:41:10.240Z,33.03
2023-08-09T06:42:10.256Z,33.08
2023-08-09T06:43:10.233Z,33.04
2023-08-09T06:44:10.233Z,33.09
2023-08-09T06:45:10.222Z,33.00
2023-08-09T06:46:10.216Z,33.00
2023-08-09T06:47:10.209Z,33.06
2023-08-09T06:48:10.314Z,33.01
2023-08-09T06:49:10.192Z,33.05
2023-08-09T06:50:10.209Z,33.00
2023-08-09T06:51:10.239Z,33.02
2023-08-09T06:52:10.284Z,33.03
2023-08-09T06:53:10.375Z,33.01
2023-08-09T06:54:10.373Z,33.03
2023-08-09T06:55:10.405Z,33.05
2023-08-09T06:56:10.478Z,33.05
2023-08-09T06:57:10.512Z,33.12
2023-08-09T06:58:10.542Z,33.10
2023-08-09T06:59:10.589Z,33.08
2023-08-09T07:00:10.633Z,33.10
2023-08-09T07:01:10.844Z,33.07
2023-08-09T07:02:10.730Z,33.16
2023-08-09T07:03:10.844Z,33.14
2023-08-09T07:04:10.845Z,33.20
2023-08-09T07:05:10.856Z,33.13
2023-08-09T07:06:10.895Z,33.13
2023-08-09T07:07:10.991Z,33.14
2023-08-09T07:08:11.011Z,33.17
2023-08-09T07:09:11.042Z,33.14
2023-08-09T07:10:11.092Z,33.13
2023-08-09T07:11:11.197Z,33.10
2023-08-09T07:12:11.193Z,33.11
2023-08-09T07:13:11.245Z,33.10
2023-08-09T07:14:11.273Z,33.11
2023-08-09T07:15:11.324Z,33.12
2023-08-09T07:16:11.398Z,33.06
2023-08-09T07:17:11.411Z,33.07
2023-08-09T07:18:11.441Z,33.11
2023-08-09T07:19:11.502Z,33.10
2023-08-09T07:20:11.547Z,33.11
2023-08-09T07:21:11.571Z,33.07
2023-08-09T07:22:11.627Z,33.02
2023-08-09T07:23:11.693Z,32.99
2023-08-09T07:24:11.715Z,32.99
2023-08-09T07:25:11.758Z,33.02
2023-08-09T07:26:11.796Z,32.98
2023-08-09T07:27:11.863Z,32.99
2023-08-09T07:28:11.894Z,32.95
2023-08-09T07:29:11.932Z,32.89
2023-08-09T07:30:12.066Z,32.89
2023-08-09T07:31:12.035Z,32.89
2023-08-09T07:32:12.148Z,32.92
2023-08-09T07:33:12.147Z,32.92
2023-08-09T07:34:12.171Z,32.88
2023-08-09T07:35:12.240Z,32.94
2023-08-09T07:36:12.254Z,32.86
2023-08-09T07:37:12.343Z,32.88
2023-08-09T07:38:12.349Z,32.98
2023-08-09T07:39:12.402Z,32.94
2023-08-09T07:40:12.456Z,32.96
2023-08-09T07:41:12.511Z,32.95
2023-08-09T07:42:12.528Z,32.96
2023-08-09T07:43:12.581Z,32.99
2023-08-09T07:44:12.622Z,33.01
2023-08-09T07:45:12.718Z,32.98
2023-08-09T07:46:12.747Z,32.99
2023-08-09T07:47:12.762Z,33.03
2023-08-09T07:48:12.813Z,33.00
2023-08-09T07:49:12.850Z,32.99
2023-08-09T07:50:12.925Z,33.02
2023-08-09T07:51:13.173Z,33.00
2023-08-09T07:52:12.993Z,32.98
2023-08-09T07:53:13.048Z,33.03
2023-08-09T07:54:13.077Z,33.03
2023-08-09T07:55:13.135Z,33.05
2023-08-09T07:56:13.166Z,33.06
2023-08-09T07:57:13.226Z,33.05
2023-08-09T07:58:13.259Z,33.08
2023-08-09T07:59:13.319Z,33.07
2023-08-09T08:00:15.693Z,33.08
2023-08-09T08:01:13.369Z,33.07
2023-08-09T08:02:13.333Z,33.11
2023-08-09T08:03:13.430Z,33.10
2023-08-09T08:04:13.388Z,33.11
2023-08-09T08:05:13.319Z,33.13
2023-08-09T08:06:13.298Z,33.09
2023-08-09T08:07:13.294Z,33.10
2023-08-09T08:08:13.293Z,33.10
2023-08-09T08:09:13.332Z,33.10
2023-08-09T08:10:13.294Z,33.12
2023-08-09T08:11:13.277Z,33.12
2023-08-09T08:12:22.609Z,33.11
2023-08-09T08:13:14.261Z,33.11
2023-08-09T08:14:14.924Z,33.13
2023-08-09T08:15:13.260Z,33.12
2023-08-09T08:16:13.308Z,33.09
2023-08-09T08:17:13.233Z,33.06
2023-08-09T08:18:13.251Z,33.13
2023-08-09T08:19:13.873Z,33.12
2023-08-09T08:20:13.204Z,33.12
2023-08-09T08:21:13.237Z,33.18
2023-08-09T08:22:13.197Z,33.16
2023-08-09T08:23:13.233Z,33.15
2023-08-09T08:24:13.209Z,33.15
2023-08-09T08:25:13.259Z,33.12
2023-08-09T08:26:13.313Z,33.16
2023-08-09T08:27:13.382Z,33.16
2023-08-09T08:28:13.403Z,33.16
2023-08-09T08:29:13.462Z,33.19
2023-08-09T08:30:13.504Z,33.11
2023-08-09T08:31:13.584Z,33.15
2023-08-09T08:32:13.617Z,33.11
2023-08-09T08:33:15.321Z,33.11
2023-08-09T08:34:13.696Z,33.09
2023-08-09T08:35:13.721Z,33.13
2023-08-09T08:36:29.320Z,33.11
2023-08-09T08:37:14.765Z,33.04
2023-08-09T08:38:13.756Z,32.99
2023-08-09T08:39:13.758Z,33.05
2023-08-09T08:40:13.762Z,32.98
2023-08-09T08:41:13.731Z,32.94
2023-08-09T08:42:13.732Z,32.90
2023-08-09T08:43:13.714Z,32.91
2023-08-09T08:44:13.723Z,32.81
2023-08-09T08:45:13.724Z,32.84
2023-08-09T08:46:13.709Z,32.84
2023-08-09T08:47:13.691Z,32.86
2023-08-09T08:48:13.701Z,32.87
2023-08-09T08:49:13.776Z,32.85
2023-08-09T08:50:13.811Z,32.93
2023-08-09T08:51:13.831Z,32.91
2023-08-09T08:52:13.882Z,32.96
2023-08-09T08:53:13.944Z,32.97
2023-08-09T08:54:13.978Z,32.98
2023-08-09T08:55:14.026Z,33.01
2023-08-09T08:56:14.161Z,33.00
2023-08-09T08:57:14.112Z,33.01
2023-08-09T08:58:14.163Z,33.00
2023-08-09T08:59:14.219Z,33.01
2023-08-09T09:00:25.233Z,33.06
2023-08-09T09:01:15.250Z,33.08
2023-08-09T09:02:14.248Z,33.04
2023-08-09T09:03:14.369Z,33.08
2023-08-09T09:04:14.242Z,33.08
2023-08-09T09:05:14.237Z,33.07
2023-08-09T09:06:14.207Z,33.07
2023-08-09T09:07:14.203Z,33.10
2023-08-09T09:08:14.261Z,33.07
2023-08-09T09:09:14.193Z,33.08
2023-08-09T09:10:14.189Z,33.11
2023-08-09T09:11:14.171Z,33.13
2023-08-09T09:12:14.164Z,33.13
2023-08-09T09:13:14.205Z,33.05
2023-08-09T09:14:14.258Z,33.14
2023-08-09T09:15:14.320Z,33.15
2023-08-09T09:16:14.361Z,33.14
2023-08-09T09:17:14.394Z,33.13
2023-08-09T09:18:14.434Z,33.17
2023-08-09T09:19:14.609Z,33.15
2023-08-09T09:20:14.685Z,33.12
2023-08-09T09:21:14.574Z,33.17
2023-08-09T09:22:14.630Z,33.17
2023-08-09T09:23:14.709Z,33.18
2023-08-09T09:24:14.725Z,33.16
2023-08-09T09:25:14.762Z,33.21
2023-08-09T09:26:14.812Z,33.21
2023-08-09T09:27:14.836Z,33.22
2023-08-09T09:28:14.877Z,33.19
2023-08-09T09:29:14.920Z,33.19
2023-08-09T09:30:15.020Z,33.16
2023-08-09T09:31:15.140Z,33.22
2023-08-09T09:32:15.057Z,33.24
2023-08-09T09:33:15.135Z,33.27
2023-08-09T09:34:15.191Z,33.18
2023-08-09T09:35:15.204Z,33.24
2023-08-09T09:36:15.277Z,33.18
2023-08-09T09:37:15.290Z,33.22
2023-08-09T09:38:15.336Z,33.18
2023-08-09T09:39:15.371Z,33.18
2023-08-09T09:40:15.428Z,33.19
2023-08-09T09:41:15.480Z,33.18
2023-08-09T09:42:15.518Z,33.21
2023-08-09T09:43:15.554Z,33.19
2023-08-09T09:44:15.605Z,33.19
2023-08-09T09:45:15.661Z,33.17
2023-08-09T09:46:26.031Z,33.14
2023-08-09T09:47:16.685Z,33.18
2023-08-09T09:48:15.713Z,33.14
2023-08-09T09:49:15.668Z,33.15
2023-08-09T09:50:15.687Z,33.17
2023-08-09T09:51:15.660Z,33.18
2023-08-09T09:52:15.675Z,33.17
2023-08-09T09:53:15.642Z,33.11
2023-08-09T09:54:16.154Z,33.23
2023-08-09T09:55:15.638Z,33.19
2023-08-09T09:56:15.656Z,33.14
2023-08-09T09:57:15.614Z,33.13
2023-08-09T09:58:15.614Z,33.11
2023-08-09T09:59:15.653Z,33.16
2023-08-09T10:00:15.712Z,33.16
2023-08-09T10:01:15.812Z,33.11
2023-08-09T10:02:15.786Z,33.13
2023-08-09T10:03:15.833Z,33.11
2023-08-09T10:04:15.870Z,33.14
2023-08-09T10:05:15.950Z,33.19
2023-08-09T10:06:16.071Z,33.13
2023-08-09T10:07:15.998Z,33.10
2023-08-09T10:08:16.071Z,33.16
2023-08-09T10:09:16.117Z,33.13
2023-08-09T10:10:16.185Z,33.14
2023-08-09T10:11:16.184Z,33.16
2023-08-09T10:12:16.386Z,33.16
2023-08-09T10:13:16.282Z,33.14
2023-08-09T10:14:16.315Z,33.16
2023-08-09T10:15:16.356Z,33.16
2023-08-09T10:16:16.441Z,33.14
2023-08-09T10:17:16.476Z,33.14
2023-08-09T10:18:17.141Z,33.14
2023-08-09T10:19:16.539Z,33.14
2023-08-09T10:20:16.575Z,33.13
2023-08-09T10:21:16.634Z,33.16
2023-08-09T10:22:16.669Z,33.14
2023-08-09T10:23:16.702Z,33.14
2023-08-09T10:24:16.758Z,33.13
2023-08-09T10:25:16.809Z,33.11
2023-08-09T10:26:16.898Z,33.11
2023-08-09T10:27:16.914Z,33.14
2023-08-09T10:28:16.945Z,33.17
2023-08-09T10:29:17.079Z,33.10
2023-08-09T10:30:17.039Z,33.17
2023-08-09T10:31:21.306Z,33.10
2023-08-09T10:32:18.365Z,33.12
2023-08-09T10:33:17.105Z,33.09
2023-08-09T10:34:17.075Z,33.10
2023-08-09T10:35:17.057Z,33.09
2023-08-09T10:36:17.047Z,33.10
2023-08-09T10:37:17.034Z,33.09
2023-08-09T10:38:17.034Z,33.09
2023-08-09T10:39:17.036Z,33.11
2023-08-09T10:40:17.142Z,33.03
2023-08-09T10:41:17.032Z,33.07
2023-08-09T10:42:17.019Z,33.05
2023-08-09T10:43:17.000Z,33.06
2023-08-09T10:44:17.044Z,33.02
2023-08-09T10:45:17.071Z,33.03
2023-08-09T10:46:17.170Z,33.00
2023-08-09T10:47:17.244Z,33.02
2023-08-09T10:48:17.225Z,32.99
2023-08-09T10:49:17.257Z,33.01
2023-08-09T10:50:17.296Z,32.97
2023-08-09T10:51:17.360Z,32.97
2023-08-09T10:52:19.394Z,33.01
2023-08-09T10:53:17.378Z,33.02
2023-08-09T10:54:17.362Z,32.95
2023-08-09T10:55:17.354Z,32.93
2023-08-09T10:56:17.360Z,32.92
2023-08-09T10:57:17.365Z,32.95
2023-08-09T10:58:17.342Z,32.94
2023-08-09T10:59:17.364Z,32.95
2023-08-09T11:00:17.331Z,32.91
2023-08-09T11:01:17.459Z,32.92
2023-08-09T11:02:17.370Z,32.93
2023-08-09T11:03:17.442Z,32.95
2023-08-09T11:04:17.460Z,32.98
2023-08-09T11:05:17.290Z,33.01
2023-08-09T11:06:17.296Z,32.99
2023-08-09T11:07:17.305Z,33.01
2023-08-09T11:08:17.412Z,33.00
2023-08-09T11:09:17.274Z,33.05
2023-08-09T11:10:17.619Z,33.03
2023-08-09T11:11:17.262Z,33.07
2023-08-09T11:12:17.241Z,33.07
2023-08-09T11:13:17.261Z,33.09
2023-08-09T11:14:17.243Z,33.07
2023-08-09T11:15:17.224Z,33.13
2023-08-09T11:16:20.622Z,33.11
2023-08-09T11:17:18.258Z,33.12
2023-08-09T11:18:17.264Z,33.13
2023-08-09T11:19:32.449Z,33.15
2023-08-09T11:20:18.201Z,33.14
2023-08-09T11:21:17.196Z,33.19
2023-08-09T11:22:17.186Z,33.23
2023-08-09T11:23:17.169Z,33.22
2023-08-09T11:24:17.183Z,33.20
2023-08-09T11:25:17.175Z,33.17
2023-08-09T11:26:17.203Z,33.19
2023-08-09T11:27:17.153Z,33.20
2023-08-09T11:28:17.144Z,33.20
2023-08-09T11:29:17.151Z,33.25
2023-08-09T11:30:17.146Z,33.16
2023-08-09T11:31:17.149Z,33.19
2023-08-09T11:32:17.152Z,33.19
2023-08-09T11:33:17.193Z,33.22
2023-08-09T11:34:17.249Z,33.20
2023-08-09T11:35:17.283Z,33.19
2023-08-09T11:36:17.337Z,33.20
2023-08-09T11:37:17.390Z,33.19
2023-08-09T11:38:17.425Z,33.19
2023-08-09T11:39:17.463Z,33.16
2023-08-09T11:40:17.521Z,33.19
2023-08-09T11:42:17.579Z,33.19
2023-08-09T11:43:17.540Z,33.19
2023-08-09T11:44:17.544Z,33.24
2023-08-09T11:45:17.583Z,33.19
2023-08-09T11:46:17.519Z,33.22
2023-08-09T11:47:17.544Z,33.25
2023-08-09T11:48:17.521Z,33.15
2023-08-09T11:49:17.525Z,33.20
2023-08-09T11:50:17.504Z,33.19
2023-08-09T11:51:17.495Z,33.18
2023-08-09T11:52:17.487Z,33.22
2023-08-09T11:53:17.489Z,33.23
2023-08-09T11:54:17.478Z,33.22
2023-08-09T11:55:17.508Z,33.19
2023-08-09T11:56:17.487Z,33.24
2023-08-09T11:57:17.465Z,33.19
2023-08-09T11:58:17.457Z,33.26
2023-08-09T11:59:17.440Z,33.20
2023-08-09T12:00:17.686Z,33.13
2023-08-09T12:01:17.512Z,33.16
2023-08-09T12:02:17.432Z,33.19
2023-08-09T12:03:17.408Z,33.18
2023-08-09T12:04:17.544Z,33.16
2023-08-09T12:05:17.476Z,33.21
2023-08-09T12:06:17.413Z,33.15
2023-08-09T12:07:17.411Z,33.18
2023-08-09T12:08:17.381Z,33.18
2023-08-09T12:09:17.434Z,33.12
2023-08-09T12:10:17.409Z,33.14
2023-08-09T12:11:17.378Z,33.08
2023-08-09T12:12:17.382Z,33.17
2023-08-09T12:13:17.373Z,33.14
2023-08-09T12:14:17.355Z,33.08
2023-08-09T12:15:17.382Z,33.05
2023-08-09T12:16:17.427Z,33.05
2023-08-09T12:17:17.806Z,33.07
2023-08-09T12:18:17.472Z,33.05
2023-08-09T12:19:17.514Z,33.06
2023-08-09T12:20:17.547Z,33.02
2023-08-09T12:21:17.661Z,32.98
2023-08-09T12:22:17.633Z,33.00
2023-08-09T12:23:17.703Z,33.00
2023-08-09T12:24:17.726Z,33.00
2023-08-09T12:25:17.744Z,33.05
2023-08-09T12:26:17.801Z,33.04
2023-08-09T12:27:17.876Z,33.05
2023-08-09T12:28:17.894Z,33.04
2023-08-09T12:29:17.927Z,33.04
2023-08-09T12:30:17.952Z,33.08
2023-08-09T12:31:18.038Z,33.01
2023-08-09T12:32:18.088Z,33.08
2023-08-09T12:33:18.070Z,33.06
2023-08-09T12:34:18.109Z,33.05
2023-08-09T12:35:18.177Z,33.10
2023-08-09T12:36:18.306Z,33.11
2023-08-09T12:37:18.309Z,33.13
2023-08-09T12:38:18.289Z,33.17
2023-08-09T12:39:18.313Z,33.12
2023-08-09T12:40:18.344Z,33.11
2023-08-09T12:41:18.396Z,33.12
2023-08-09T12:42:18.460Z,33.12
2023-08-09T12:43:18.490Z,33.18
2023-08-09T12:44:18.531Z,33.21
2023-08-09T12:45:18.576Z,33.25
2023-08-09T12:46:18.720Z,33.20
2023-08-09T12:47:18.670Z,33.22
2023-08-09T12:49:28.246Z,33.26
2023-08-09T12:50:28.236Z,33.26
2023-08-09T12:51:28.226Z,33.28
2023-08-09T12:52:28.257Z,33.31
2023-08-09T12:53:29.365Z,33.33
2023-08-09T12:54:28.207Z,33.28
2023-08-09T12:55:28.276Z,33.29